Time;durP1;ratioP1;P1;durP2;ratioP2;P2;SDS_P1;SDS_P2;PMS_P1;PMS_P2;Temp;Humidity;BMP_temperature;BMP_pressure;BME280_temperature;BME280_humidity;BME280_pressure;Samples;Min_cycle;Max_cycle;Signal;HPM_P1;HPM_P2
2021/03/16 00:01:01;;;;;;;;;;;9.30;62.30;;;;;;5026012;28;19933;-71
2021/03/16 00:03:27;;;;;;;;;;;9.30;62.10;;;;;;5013313;28;19936;-71
2021/03/16 00:05:54;;;;;;;;;;;9.30;62.20;;;;;;5013390;28;19925;-72
2021/03/16 00:08:20;;;;;;;;;;;9.20;62.30;;;;;;5030233;28;20306;-72
2021/03/16 00:10:46;;;;;;;;;;;9.20;62.60;;;;;;5033717;28;19929;-72
2021/03/16 00:13:12;;;;;;;;;;;9.20;62.70;;;;;;5025033;28;20428;-73
2021/03/16 00:15:40;;;;;;;;;;;9.20;62.30;;;;;;5013455;28;19926;-72
2021/03/16 00:18:08;;;;;;;;;;;9.20;62.20;;;;;;5013215;28;19925;-72
2021/03/16 00:20:34;;;;;;;;;;;9.20;62.40;;;;;;5014486;28;19933;-71
2021/03/16 00:23:00;;;;;;;;;;;9.20;62.10;;;;;;5024937;28;19933;-72
2021/03/16 00:25:26;;;;;;;;;;;9.20;62.00;;;;;;5012902;28;19929;-72
2021/03/16 00:27:53;;;;;;;;;;;9.20;62.00;;;;;;5013099;28;19925;-71
2021/03/16 00:30:19;;;;;;;;;;;9.20;61.90;;;;;;5015874;28;19925;-72
2021/03/16 00:32:46;;;;;;;;;;;9.30;61.90;;;;;;5023770;28;19929;-71
2021/03/16 00:35:13;;;;;;;;;;;9.30;61.60;;;;;;5012741;28;19987;-72
2021/03/16 00:37:39;;;;;;;;;;;9.30;61.30;;;;;;5013832;28;19925;-72
2021/03/16 00:40:06;;;;;;;;;;;9.30;61.20;;;;;;5012936;28;19930;-72
2021/03/16 00:42:33;;;;;;;;;;;9.30;61.20;;;;;;5013366;28;19930;-72
2021/03/16 00:44:59;;;;;;;;;;;9.30;60.60;;;;;;5012667;28;19925;-72
2021/03/16 00:47:25;;;;;;;;;;;9.20;60.70;;;;;;5012220;28;19988;-72
2021/03/16 00:49:53;;;;;;;;;;;9.20;60.90;;;;;;5025620;28;19929;-71
2021/03/16 00:52:19;;;;;;;;;;;9.20;60.80;;;;;;5032504;28;19929;-71
2021/03/16 00:54:45;;;;;;;;;;;9.20;60.60;;;;;;5012827;28;19938;-71
2021/03/16 00:57:11;;;;;;;;;;;9.20;59.80;;;;;;5012972;28;19926;-71
2021/03/16 00:59:38;;;;;;;;;;;9.10;59.30;;;;;;5012623;28;20397;-71
2021/03/16 01:02:04;;;;;;;;;;;9.10;59.80;;;;;;5012863;28;19926;-71
2021/03/16 01:04:30;;;;;;;;;;;9.10;59.20;;;;;;5012908;28;19930;-72
2021/03/16 01:06:57;;;;;;;;;;;9.00;58.70;;;;;;5012128;28;19926;-71
2021/03/16 01:09:24;;;;;;;;;;;8.90;58.90;;;;;;5017221;28;19933;-71
2021/03/16 01:11:50;;;;;;;;;;;8.90;59.10;;;;;;5013038;28;19925;-72
2021/03/16 01:14:16;;;;;;;;;;;8.80;59.10;;;;;;5021273;28;19929;-72
2021/03/16 01:16:43;;;;;;;;;;;8.80;59.10;;;;;;5026482;28;19952;-72
2021/03/16 01:19:09;;;;;;;;;;;8.80;58.80;;;;;;5032720;28;19925;-72
2021/03/16 01:21:36;;;;;;;;;;;8.80;59.00;;;;;;5026594;28;19925;-72
2021/03/16 01:24:03;;;;;;;;;;;8.80;58.60;;;;;;5031236;28;19937;-71
2021/03/16 01:26:29;;;;;;;;;;;8.60;57.80;;;;;;5031482;28;19926;-72
2021/03/16 01:28:56;;;;;;;;;;;8.60;58.50;;;;;;5013192;28;19995;-72
2021/03/16 01:31:22;;;;;;;;;;;8.60;58.60;;;;;;5031187;28;19979;-72
2021/03/16 01:33:48;;;;;;;;;;;8.70;58.70;;;;;;5026453;28;20297;-72
2021/03/16 01:36:15;;;;;;;;;;;8.70;58.50;;;;;;5016026;28;19932;-72
2021/03/16 01:38:41;;;;;;;;;;;8.80;58.50;;;;;;5016132;28;20271;-72
2021/03/16 01:41:08;;;;;;;;;;;8.90;58.50;;;;;;5027881;28;19932;-72
2021/03/16 01:43:34;;;;;;;;;;;8.90;58.30;;;;;;5028651;28;19930;-72
2021/03/16 01:46:01;;;;;;;;;;;9.00;58.40;;;;;;5016465;28;20008;-73
2021/03/16 01:48:28;;;;;;;;;;;9.00;58.60;;;;;;5017449;28;20270;-72
2021/03/16 01:50:54;;;;;;;;;;;9.00;58.70;;;;;;5023184;28;19932;-72
2021/03/16 01:53:21;;;;;;;;;;;9.00;58.90;;;;;;5023371;28;20340;-72
2021/03/16 01:55:49;;;;;;;;;;;8.90;58.40;;;;;;5026253;28;19925;-72
2021/03/16 01:58:16;;;;;;;;;;;8.90;58.80;;;;;;5035525;28;19983;-72
2021/03/16 02:00:43;;;;;;;;;;;8.90;58.90;;;;;;5016210;28;20460;-72
2021/03/16 02:03:10;;;;;;;;;;;8.90;59.10;;;;;;5020790;28;19925;-72
2021/03/16 02:05:36;;;;;;;;;;;8.90;59.30;;;;;;5016045;28;19949;-72
2021/03/16 02:08:07;;;;;;;;;;;8.90;59.50;;;;;;5025948;28;19926;-72
2021/03/16 02:10:39;;;;;;;;;;;8.90;59.40;;;;;;5026237;28;20031;-72
2021/03/16 02:13:06;;;;;;;;;;;8.90;59.50;;;;;;5017728;28;20408;-72
2021/03/16 02:15:35;;;;;;;;;;;8.90;59.60;;;;;;5021739;28;19925;-72
2021/03/16 02:18:03;;;;;;;;;;;8.90;59.80;;;;;;5029618;28;19926;-72
2021/03/16 02:20:42;;;;;;;;;;;8.90;59.80;;;;;;5019741;28;19929;-72
2021/03/16 02:23:11;;;;;;;;;;;8.90;59.80;;;;;;5033473;28;19978;-72
2021/03/16 02:25:55;;;;;;;;;;;8.90;59.80;;;;;;5029151;28;20378;-72
2021/03/16 02:28:33;;;;;;;;;;;8.90;60.00;;;;;;5005535;28;19933;-72
2021/03/16 02:31:02;;;;;;;;;;;8.90;59.80;;;;;;5020411;28;19925;-71
2021/03/16 02:33:30;;;;;;;;;;;8.90;59.80;;;;;;5013826;28;19933;-72
2021/03/16 02:35:58;;;;;;;;;;;8.90;59.70;;;;;;5025195;28;19926;-72
2021/03/16 02:38:27;;;;;;;;;;;8.90;59.90;;;;;;5019726;28;19932;-72
2021/03/16 02:40:54;;;;;;;;;;;8.90;59.90;;;;;;5033756;28;19925;-72
2021/03/16 02:43:20;;;;;;;;;;;8.90;60.00;;;;;;4998468;28;19929;-72
2021/03/16 02:45:47;;;;;;;;;;;8.80;59.60;;;;;;5015064;28;19929;-72
2021/03/16 02:48:16;;;;;;;;;;;8.70;59.90;;;;;;5031241;28;19925;-72
2021/03/16 02:50:43;;;;;;;;;;;8.70;60.00;;;;;;5034887;28;19925;-72
2021/03/16 02:53:10;;;;;;;;;;;8.60;60.50;;;;;;5031735;28;20022;-72
2021/03/16 02:55:37;;;;;;;;;;;8.60;61.00;;;;;;5016518;28;19932;-72
2021/03/16 02:58:03;;;;;;;;;;;8.60;60.80;;;;;;5026475;28;19979;-72
2021/03/16 03:00:30;;;;;;;;;;;8.50;60.70;;;;;;5030912;28;19925;-72
2021/03/16 03:02:56;;;;;;;;;;;8.50;61.30;;;;;;5018536;28;19925;-72
2021/03/16 03:05:24;;;;;;;;;;;8.60;61.40;;;;;;5030567;28;19925;-72
2021/03/16 03:07:51;;;;;;;;;;;8.60;61.50;;;;;;5021363;28;20378;-72
2021/03/16 03:10:17;;;;;;;;;;;8.60;61.10;;;;;;5014937;28;19929;-72
2021/03/16 03:12:44;;;;;;;;;;;8.60;60.80;;;;;;5014438;28;19933;-72
2021/03/16 03:15:10;;;;;;;;;;;8.60;61.20;;;;;;5015322;28;19988;-72
2021/03/16 03:17:37;;;;;;;;;;;8.60;61.50;;;;;;5014349;28;19948;-72
2021/03/16 03:20:05;;;;;;;;;;;8.60;61.60;;;;;;5020108;28;20396;-73
2021/03/16 03:22:35;;;;;;;;;;;8.60;61.00;;;;;;5021047;28;19932;-72
2021/03/16 03:25:05;;;;;;;;;;;8.50;61.10;;;;;;5032302;28;19932;-72
2021/03/16 03:27:33;;;;;;;;;;;8.40;60.90;;;;;;5015319;28;19926;-72
2021/03/16 03:30:00;;;;;;;;;;;8.40;61.40;;;;;;5013609;28;20337;-73
2021/03/16 03:32:28;;;;;;;;;;;8.50;61.70;;;;;;5014258;28;19926;-72
2021/03/16 03:34:55;;;;;;;;;;;8.50;61.60;;;;;;5014874;28;19929;-72
2021/03/16 03:37:22;;;;;;;;;;;8.50;61.50;;;;;;5017875;28;19948;-72
2021/03/16 03:39:49;;;;;;;;;;;8.60;61.40;;;;;;5014020;28;19926;-72
2021/03/16 03:42:18;;;;;;;;;;;8.60;61.20;;;;;;5014632;28;19933;-72
2021/03/16 03:44:45;;;;;;;;;;;8.50;61.40;;;;;;5015062;28;20297;-72
2021/03/16 03:47:12;;;;;;;;;;;8.50;61.50;;;;;;5015342;28;19972;-72
2021/03/16 03:49:39;;;;;;;;;;;8.50;61.60;;;;;;5014022;28;19929;-72
2021/03/16 03:52:07;;;;;;;;;;;8.50;61.60;;;;;;5027004;28;19929;-72
2021/03/16 03:54:35;;;;;;;;;;;8.50;61.00;;;;;;5019371;28;19932;-72
2021/03/16 03:57:04;;;;;;;;;;;8.40;60.80;;;;;;5031532;28;19925;-72
2021/03/16 03:59:30;;;;;;;;;;;8.40;61.20;;;;;;5028787;28;19929;-72
2021/03/16 04:01:57;;;;;;;;;;;8.40;61.20;;;;;;5022139;28;19926;-72
2021/03/16 04:04:24;;;;;;;;;;;8.40;61.20;;;;;;5020351;28;19925;-73
2021/03/16 04:06:51;;;;;;;;;;;8.50;61.60;;;;;;5026923;28;20373;-72
2021/03/16 04:09:17;;;;;;;;;;;8.50;61.40;;;;;;5033453;28;19929;-73
2021/03/16 04:11:43;;;;;;;;;;;8.50;61.10;;;;;;5028916;28;19925;-72
2021/03/16 04:14:10;;;;;;;;;;;8.60;61.10;;;;;;5031535;28;19933;-72
2021/03/16 04:16:37;;;;;;;;;;;8.50;61.00;;;;;;5003783;28;19929;-73
2021/03/16 04:19:04;;;;;;;;;;;8.60;61.20;;;;;;5012683;28;19925;-73
2021/03/16 04:21:30;;;;;;;;;;;8.60;60.90;;;;;;5017451;28;19932;-72
2021/03/16 04:23:56;;;;;;;;;;;8.60;60.40;;;;;;5031186;28;19925;-72
2021/03/16 04:26:23;;;;;;;;;;;8.60;60.70;;;;;;5025594;28;19976;-72
2021/03/16 04:28:49;;;;;;;;;;;8.60;60.80;;;;;;5013227;28;19925;-72
2021/03/16 04:31:17;;;;;;;;;;;8.60;61.50;;;;;;5023836;28;19933;-72
2021/03/16 04:33:43;;;;;;;;;;;8.60;62.40;;;;;;5032357;28;20022;-72
2021/03/16 04:36:09;;;;;;;;;;;8.60;61.90;;;;;;5020168;28;19925;-72
2021/03/16 04:38:36;;;;;;;;;;;8.60;61.90;;;;;;5033118;28;19929;-72
2021/03/16 04:41:02;;;;;;;;;;;8.60;61.60;;;;;;5024651;28;19926;-72
2021/03/16 04:43:28;;;;;;;;;;;8.70;61.60;;;;;;5013001;28;19992;-72
2021/03/16 04:45:55;;;;;;;;;;;8.70;61.70;;;;;;5011292;28;19934;-72
2021/03/16 04:48:22;;;;;;;;;;;8.70;61.20;;;;;;5014419;28;20298;-72
2021/03/16 04:50:48;;;;;;;;;;;8.70;61.20;;;;;;5013195;28;19930;-72
2021/03/16 04:53:14;;;;;;;;;;;8.70;61.20;;;;;;5027679;28;19948;-73
2021/03/16 04:55:40;;;;;;;;;;;8.60;60.90;;;;;;5031306;28;19925;-73
2021/03/16 04:58:07;;;;;;;;;;;8.70;61.10;;;;;;5030873;28;19933;-73
2021/03/16 05:00:33;;;;;;;;;;;8.60;60.90;;;;;;5017643;28;19996;-72
2021/03/16 05:02:59;;;;;;;;;;;8.60;60.80;;;;;;5023665;28;19926;-73
2021/03/16 05:05:26;;;;;;;;;;;8.60;61.00;;;;;;5015430;28;20378;-73
2021/03/16 05:07:53;;;;;;;;;;;8.60;60.70;;;;;;5019088;28;20024;-73
2021/03/16 05:10:19;;;;;;;;;;;8.50;60.40;;;;;;5023061;28;19930;-72
2021/03/16 05:12:45;;;;;;;;;;;8.50;60.40;;;;;;5021620;28;20016;-72
2021/03/16 05:15:12;;;;;;;;;;;8.50;60.70;;;;;;5035375;28;19936;-72
2021/03/16 05:17:39;;;;;;;;;;;8.50;60.90;;;;;;5036532;28;19932;-72
2021/03/16 05:20:05;;;;;;;;;;;8.40;60.20;;;;;;5028315;28;19932;-72
2021/03/16 05:22:33;;;;;;;;;;;8.40;60.70;;;;;;5016840;28;19925;-72
2021/03/16 05:25:00;;;;;;;;;;;8.40;60.60;;;;;;5016386;28;20020;-72
2021/03/16 05:27:26;;;;;;;;;;;8.50;60.20;;;;;;5020439;28;20064;-72
2021/03/16 05:29:53;;;;;;;;;;;8.50;60.00;;;;;;5016142;28;19925;-72
2021/03/16 05:32:19;;;;;;;;;;;8.40;60.40;;;;;;5029549;28;20385;-72
2021/03/16 05:34:45;;;;;;;;;;;8.40;60.20;;;;;;5024536;28;19926;-72
2021/03/16 05:37:12;;;;;;;;;;;8.40;60.40;;;;;;5021875;28;19925;-72
2021/03/16 05:39:39;;;;;;;;;;;8.50;60.40;;;;;;5021089;28;19940;-72
2021/03/16 05:42:06;;;;;;;;;;;8.50;60.10;;;;;;5017386;28;19932;-72
2021/03/16 05:44:33;;;;;;;;;;;8.50;60.20;;;;;;5019070;28;19930;-72
2021/03/16 05:47:01;;;;;;;;;;;8.50;60.00;;;;;;5026136;28;19926;-72
2021/03/16 05:49:27;;;;;;;;;;;8.60;60.10;;;;;;5016120;28;19937;-72
2021/03/16 05:51:54;;;;;;;;;;;8.50;60.20;;;;;;5016931;28;19934;-72
2021/03/16 05:54:21;;;;;;;;;;;8.50;60.40;;;;;;5028301;28;19925;-72
2021/03/16 05:56:48;;;;;;;;;;;8.60;60.30;;;;;;5018686;28;19925;-72
2021/03/16 05:59:15;;;;;;;;;;;8.60;60.40;;;;;;5016692;28;19933;-73
2021/03/16 06:01:41;;;;;;;;;;;8.60;60.30;;;;;;5028566;28;19925;-71
2021/03/16 06:04:08;;;;;;;;;;;8.60;59.80;;;;;;5027372;28;19925;-71
2021/03/16 06:06:34;;;;;;;;;;;8.60;59.60;;;;;;5022589;28;19932;-71
2021/03/16 06:09:00;;;;;;;;;;;8.60;59.60;;;;;;5033817;28;19936;-72
2021/03/16 06:11:27;;;;;;;;;;;8.70;59.90;;;;;;5019017;28;20440;-71
2021/03/16 06:13:54;;;;;;;;;;;8.70;60.00;;;;;;5016935;28;19968;-72
2021/03/16 06:16:23;;;;;;;;;;;8.70;59.90;;;;;;5022060;28;20403;-72
2021/03/16 06:18:50;;;;;;;;;;;8.70;59.40;;;;;;5025005;28;19945;-71
2021/03/16 06:21:20;;;;;;;;;;;8.80;59.40;;;;;;5031399;28;19952;-71
2021/03/16 06:23:53;;;;;;;;;;;8.80;59.60;;;;;;5000223;28;19933;-71
2021/03/16 06:26:19;;;;;;;;;;;8.70;59.30;;;;;;5015760;28;20368;-71
2021/03/16 06:28:46;;;;;;;;;;;8.80;59.50;;;;;;5014054;28;19965;-71
2021/03/16 06:31:21;;;;;;;;;;;8.80;59.50;;;;;;5015378;28;19925;-72
2021/03/16 06:33:49;;;;;;;;;;;8.90;59.60;;;;;;5013885;28;20016;-72
2021/03/16 06:36:15;;;;;;;;;;;8.90;59.60;;;;;;5014853;28;20413;-72
2021/03/16 06:38:41;;;;;;;;;;;8.90;59.60;;;;;;5015228;28;19926;-72
2021/03/16 06:41:09;;;;;;;;;;;9.00;59.70;;;;;;5015219;28;20390;-72
2021/03/16 06:43:35;;;;;;;;;;;8.90;58.80;;;;;;5014065;28;19926;-72
2021/03/16 06:46:01;;;;;;;;;;;8.90;59.00;;;;;;5025363;28;20389;-72
2021/03/16 06:48:33;;;;;;;;;;;8.90;59.30;;;;;;5015107;28;19936;-72
2021/03/16 06:51:07;;;;;;;;;;;8.90;59.20;;;;;;5031399;28;20382;-72
2021/03/16 06:53:34;;;;;;;;;;;9.00;59.30;;;;;;5027946;28;19929;-72
2021/03/16 06:56:00;;;;;;;;;;;9.00;59.20;;;;;;5023487;28;19926;-73
2021/03/16 06:58:28;;;;;;;;;;;9.10;59.10;;;;;;5011873;28;19933;-73
2021/03/16 07:01:04;;;;;;;;;;;9.10;59.00;;;;;;5014965;28;19925;-72
2021/03/16 07:03:31;;;;;;;;;;;9.10;58.80;;;;;;5016265;28;19925;-73
2021/03/16 07:06:10;;;;;;;;;;;9.10;59.10;;;;;;4995021;28;20424;-73
2021/03/16 07:08:37;;;;;;;;;;;9.10;59.20;;;;;;4994991;28;19926;-72
2021/03/16 07:11:04;;;;;;;;;;;9.10;59.10;;;;;;5009112;28;19971;-73
2021/03/16 07:13:31;;;;;;;;;;;9.00;59.20;;;;;;5015515;28;19987;-72
2021/03/16 07:15:58;;;;;;;;;;;9.00;59.40;;;;;;5028469;28;19933;-73
2021/03/16 07:18:24;;;;;;;;;;;8.90;59.30;;;;;;5033690;28;19925;-73
2021/03/16 07:20:52;;;;;;;;;;;8.70;59.50;;;;;;5031607;28;19940;-73
2021/03/16 07:23:19;;;;;;;;;;;8.70;60.20;;;;;;5016371;28;19933;-73
2021/03/16 07:25:45;;;;;;;;;;;8.70;61.00;;;;;;5031597;28;19925;-73
2021/03/16 07:28:12;;;;;;;;;;;8.70;61.20;;;;;;5016886;28;19925;-72
2021/03/16 07:30:39;;;;;;;;;;;8.70;61.50;;;;;;5027420;28;19925;-72
2021/03/16 07:33:06;;;;;;;;;;;8.70;62.40;;;;;;5026285;28;19971;-72
2021/03/16 07:35:34;;;;;;;;;;;8.70;62.80;;;;;;5028365;28;19971;-72
2021/03/16 07:38:02;;;;;;;;;;;8.60;63.20;;;;;;5033803;28;19954;-73
2021/03/16 07:40:28;;;;;;;;;;;8.60;63.70;;;;;;5033234;28;19925;-73
2021/03/16 07:42:54;;;;;;;;;;;8.60;64.00;;;;;;5033436;28;20329;-73
2021/03/16 07:45:24;;;;;;;;;;;8.70;64.30;;;;;;5021846;28;20302;-73
2021/03/16 07:47:50;;;;;;;;;;;8.80;64.40;;;;;;5015089;28;19948;-73
2021/03/16 07:50:16;;;;;;;;;;;8.90;64.50;;;;;;5033642;28;19925;-73
2021/03/16 07:52:44;;;;;;;;;;;9.00;64.50;;;;;;5031944;28;19933;-73
2021/03/16 07:55:12;;;;;;;;;;;9.10;64.10;;;;;;5032135;28;20433;-73
2021/03/16 07:57:38;;;;;;;;;;;9.30;63.80;;;;;;5033842;28;19925;-73
2021/03/16 08:00:06;;;;;;;;;;;9.40;63.40;;;;;;5032454;28;20365;-73
2021/03/16 08:02:33;;;;;;;;;;;9.40;62.80;;;;;;5027882;28;19925;-73
2021/03/16 08:05:00;;;;;;;;;;;9.50;62.50;;;;;;5013246;28;19930;-73
2021/03/16 08:07:28;;;;;;;;;;;9.50;62.20;;;;;;5033092;28;19936;-73
2021/03/16 08:09:57;;;;;;;;;;;9.60;62.10;;;;;;5033505;28;20500;-73
2021/03/16 08:12:25;;;;;;;;;;;9.60;62.00;;;;;;5031973;28;20350;-73
2021/03/16 08:14:52;;;;;;;;;;;9.70;62.00;;;;;;5033307;28;19925;-72
2021/03/16 08:17:28;;;;;;;;;;;9.80;61.80;;;;;;5031664;28;20016;-73
2021/03/16 08:19:55;;;;;;;;;;;9.80;61.20;;;;;;5032338;28;19932;-73
2021/03/16 08:22:21;;;;;;;;;;;9.80;61.20;;;;;;5033323;28;19926;-73
2021/03/16 08:24:47;;;;;;;;;;;9.90;60.90;;;;;;5031879;28;20389;-73
2021/03/16 08:27:14;;;;;;;;;;;9.90;60.90;;;;;;5033210;28;20021;-73
2021/03/16 08:29:45;;;;;;;;;;;9.90;60.80;;;;;;5033109;28;19925;-73
2021/03/16 08:32:14;;;;;;;;;;;9.90;60.50;;;;;;5031687;28;19929;-73
2021/03/16 08:34:41;;;;;;;;;;;9.90;60.40;;;;;;5032923;28;20373;-74
2021/03/16 08:37:07;;;;;;;;;;;10.00;59.10;;;;;;5031430;28;19932;-73
2021/03/16 08:39:33;;;;;;;;;;;9.90;60.10;;;;;;5032406;28;19926;-73
2021/03/16 08:42:01;;;;;;;;;;;9.90;60.10;;;;;;5033166;28;20020;-73
2021/03/16 08:44:28;;;;;;;;;;;10.00;58.90;;;;;;5029652;28;20024;-73
2021/03/16 08:46:56;;;;;;;;;;;10.10;58.40;;;;;;5032696;28;19929;-73
2021/03/16 08:49:24;;;;;;;;;;;10.20;58.50;;;;;;5032818;28;19932;-73
2021/03/16 08:51:50;;;;;;;;;;;10.30;58.30;;;;;;5032905;28;19948;-73
2021/03/16 08:54:23;;;;;;;;;;;10.30;58.00;;;;;;5031469;28;19932;-73
2021/03/16 08:56:49;;;;;;;;;;;10.40;58.00;;;;;;5032519;28;19925;-73
2021/03/16 08:59:18;;;;;;;;;;;10.50;57.90;;;;;;5032831;28;19936;-72
2021/03/16 09:01:46;;;;;;;;;;;10.50;57.50;;;;;;5032687;28;19929;-72
2021/03/16 09:04:14;;;;;;;;;;;10.50;57.00;;;;;;5022633;28;19932;-72
2021/03/16 09:06:40;;;;;;;;;;;10.40;56.40;;;;;;5032080;28;20366;-72
2021/03/16 09:09:06;;;;;;;;;;;10.30;56.90;;;;;;5031579;28;19925;-72
2021/03/16 09:11:34;;;;;;;;;;;10.20;57.20;;;;;;5030861;28;19925;-73
2021/03/16 09:14:13;;;;;;;;;;;10.10;56.90;;;;;;5031466;28;19972;-72
2021/03/16 09:16:43;;;;;;;;;;;10.00;56.70;;;;;;5032507;28;20407;-72
2021/03/16 09:19:10;;;;;;;;;;;9.90;58.10;;;;;;5032626;28;19925;-72
2021/03/16 09:21:47;;;;;;;;;;;9.90;58.40;;;;;;5032552;28;19929;-72
2021/03/16 09:24:13;;;;;;;;;;;9.80;58.90;;;;;;5031185;28;19933;-72
2021/03/16 09:26:41;;;;;;;;;;;9.80;59.40;;;;;;5032350;28;20382;-72
2021/03/16 09:29:07;;;;;;;;;;;9.70;60.60;;;;;;5032600;28;19933;-72
2021/03/16 09:31:33;;;;;;;;;;;9.60;60.80;;;;;;5031108;28;19925;-72
2021/03/16 09:34:00;;;;;;;;;;;9.60;61.50;;;;;;5032471;28;20258;-72
2021/03/16 09:36:27;;;;;;;;;;;9.50;62.00;;;;;;5030745;28;19925;-72
2021/03/16 09:38:55;;;;;;;;;;;9.60;62.90;;;;;;5031326;28;20008;-72
2021/03/16 09:41:21;;;;;;;;;;;9.70;63.30;;;;;;5032502;28;19948;-72
2021/03/16 09:43:47;;;;;;;;;;;9.80;63.20;;;;;;5032326;28;19932;-72
2021/03/16 09:46:14;;;;;;;;;;;9.70;63.50;;;;;;5031108;28;19925;-72
2021/03/16 09:48:41;;;;;;;;;;;9.60;63.70;;;;;;5032353;28;19932;-72
2021/03/16 09:51:11;;;;;;;;;;;9.50;63.90;;;;;;5031160;28;19929;-72
2021/03/16 09:53:38;;;;;;;;;;;9.50;64.70;;;;;;5035372;28;19926;-72
2021/03/16 09:56:09;;;;;;;;;;;9.60;64.80;;;;;;5035948;28;19929;-72
2021/03/16 09:58:35;;;;;;;;;;;9.70;64.50;;;;;;5034510;28;20358;-72
2021/03/16 10:01:02;;;;;;;;;;;9.80;64.40;;;;;;5036033;28;19929;-72
2021/03/16 10:03:28;;;;;;;;;;;9.70;64.10;;;;;;5027236;28;19987;-72
2021/03/16 10:06:01;;;;;;;;;;;9.80;64.80;;;;;;5035686;28;19929;-73
2021/03/16 10:08:28;;;;;;;;;;;9.70;64.70;;;;;;5035581;28;20024;-72
2021/03/16 10:10:54;;;;;;;;;;;9.70;65.10;;;;;;5034167;28;19929;-73
2021/03/16 10:13:29;;;;;;;;;;;9.60;65.50;;;;;;5035617;28;20651;-72
2021/03/16 10:15:56;;;;;;;;;;;9.50;65.90;;;;;;5034259;28;19971;-72
2021/03/16 10:18:24;;;;;;;;;;;9.50;66.10;;;;;;5035451;28;19929;-72
2021/03/16 10:20:51;;;;;;;;;;;9.40;66.20;;;;;;5034575;28;19932;-72
2021/03/16 10:23:19;;;;;;;;;;;9.50;66.70;;;;;;5035015;28;19929;-72
2021/03/16 10:25:54;;;;;;;;;;;9.50;67.10;;;;;;5035174;28;19932;-72
2021/03/16 10:28:30;;;;;;;;;;;9.70;67.20;;;;;;5034372;28;19925;-72
2021/03/16 10:31:08;;;;;;;;;;;9.90;67.50;;;;;;5033874;28;19925;-72
2021/03/16 10:33:34;;;;;;;;;;;10.10;65.70;;;;;;5035400;28;19952;-72
2021/03/16 10:36:01;;;;;;;;;;;10.30;65.20;;;;;;5034019;28;19972;-72
2021/03/16 10:38:27;;;;;;;;;;;10.50;64.80;;;;;;5034905;28;20431;-73
2021/03/16 10:40:53;;;;;;;;;;;10.60;64.40;;;;;;5034939;28;20325;-72
2021/03/16 10:43:20;;;;;;;;;;;10.70;64.00;;;;;;5035167;28;19928;-72
2021/03/16 10:45:46;;;;;;;;;;;10.80;63.60;;;;;;5034776;28;19929;-73
2021/03/16 10:48:14;;;;;;;;;;;10.80;63.40;;;;;;5034945;28;19925;-73
2021/03/16 10:50:40;;;;;;;;;;;10.90;62.80;;;;;;5034906;28;20406;-72
2021/03/16 10:53:06;;;;;;;;;;;10.90;62.50;;;;;;5034813;28;19932;-72
2021/03/16 10:55:33;;;;;;;;;;;10.90;61.40;;;;;;5031591;28;19925;-72
2021/03/16 10:58:00;;;;;;;;;;;10.80;61.10;;;;;;5034623;28;19929;-72
2021/03/16 11:00:26;;;;;;;;;;;10.70;61.30;;;;;;5034267;28;19925;-72
2021/03/16 11:02:53;;;;;;;;;;;10.60;60.20;;;;;;5025761;28;19968;-72
2021/03/16 11:05:20;;;;;;;;;;;10.60;60.70;;;;;;5014690;28;19926;-72
2021/03/16 11:07:47;;;;;;;;;;;10.60;60.80;;;;;;5018158;28;19933;-72
2021/03/16 11:10:13;;;;;;;;;;;10.60;60.20;;;;;;5014806;28;20329;-72
2021/03/16 11:12:40;;;;;;;;;;;10.50;60.00;;;;;;5014544;28;19925;-73
2021/03/16 11:15:07;;;;;;;;;;;10.60;60.00;;;;;;5018953;28;19936;-72
2021/03/16 11:17:33;;;;;;;;;;;10.60;59.70;;;;;;5026611;28;20305;-72
2021/03/16 11:19:59;;;;;;;;;;;10.70;59.80;;;;;;5025687;28;19925;-72
2021/03/16 11:22:26;;;;;;;;;;;10.80;59.50;;;;;;5032571;28;20354;-72
2021/03/16 11:24:53;;;;;;;;;;;10.90;59.40;;;;;;5023659;28;19925;-73
2021/03/16 11:27:19;;;;;;;;;;;11.00;59.40;;;;;;5016965;28;19930;-73
2021/03/16 11:29:48;;;;;;;;;;;11.10;58.60;;;;;;5034072;28;19925;-74
2021/03/16 11:32:14;;;;;;;;;;;11.10;58.10;;;;;;5031317;28;19925;-73
2021/03/16 11:34:40;;;;;;;;;;;11.10;57.70;;;;;;5029743;28;19960;-73
2021/03/16 11:37:07;;;;;;;;;;;11.00;58.30;;;;;;5016886;28;20343;-73
2021/03/16 11:39:34;;;;;;;;;;;10.90;56.60;;;;;;5015013;28;19932;-72
2021/03/16 11:42:00;;;;;;;;;;;10.70;55.80;;;;;;5013670;28;20404;-72
2021/03/16 11:44:27;;;;;;;;;;;10.60;55.90;;;;;;5014172;28;19929;-72
2021/03/16 11:46:54;;;;;;;;;;;10.50;56.30;;;;;;5013762;28;19926;-73
2021/03/16 11:49:20;;;;;;;;;;;10.40;56.60;;;;;;5011732;28;20286;-72
2021/03/16 11:51:46;;;;;;;;;;;10.40;56.80;;;;;;5017352;28;19932;-73
2021/03/16 11:54:13;;;;;;;;;;;10.40;57.20;;;;;;5033534;28;20386;-72
2021/03/16 11:56:40;;;;;;;;;;;10.30;57.10;;;;;;5019460;28;19971;-72
2021/03/16 11:59:06;;;;;;;;;;;10.30;57.60;;;;;;5013535;28;19925;-73
2021/03/16 12:01:33;;;;;;;;;;;10.30;57.50;;;;;;5014289;28;19980;-72
2021/03/16 12:04:00;;;;;;;;;;;10.40;57.80;;;;;;5014579;28;19930;-73
2021/03/16 12:06:26;;;;;;;;;;;10.40;57.10;;;;;;5016054;28;19969;-72
2021/03/16 12:08:55;;;;;;;;;;;10.50;57.50;;;;;;5024368;28;19925;-72
2021/03/16 12:11:21;;;;;;;;;;;10.60;57.70;;;;;;5024403;28;19958;-73
2021/03/16 12:13:49;;;;;;;;;;;10.80;57.50;;;;;;5016216;28;19925;-72
2021/03/16 12:16:15;;;;;;;;;;;11.10;57.80;;;;;;5029378;28;19934;-72
2021/03/16 12:18:41;;;;;;;;;;;11.40;57.60;;;;;;5023683;28;20005;-72
2021/03/16 12:21:08;;;;;;;;;;;11.50;57.00;;;;;;5019062;28;20272;-73
2021/03/16 12:23:34;;;;;;;;;;;11.80;56.40;;;;;;5032442;28;19932;-72
2021/03/16 12:26:00;;;;;;;;;;;12.00;55.70;;;;;;5006611;28;19973;-72
2021/03/16 12:28:26;;;;;;;;;;;12.10;53.50;;;;;;5005544;28;19925;-71
2021/03/16 12:30:54;;;;;;;;;;;12.30;53.20;;;;;;5006600;28;20386;-72
2021/03/16 12:33:21;;;;;;;;;;;12.40;52.40;;;;;;5022406;28;19925;-72
2021/03/16 12:35:51;;;;;;;;;;;12.50;51.90;;;;;;5017638;28;20287;-73
2021/03/16 12:38:17;;;;;;;;;;;12.50;52.20;;;;;;5012845;28;19972;-73
2021/03/16 12:40:43;;;;;;;;;;;12.50;51.90;;;;;;5023055;28;19948;-73
2021/03/16 12:43:10;;;;;;;;;;;12.40;51.10;;;;;;5026883;28;19972;-73
2021/03/16 12:45:36;;;;;;;;;;;12.20;50.70;;;;;;5022692;28;19925;-73
2021/03/16 12:48:04;;;;;;;;;;;12.10;50.90;;;;;;5032655;28;19925;-74
2021/03/16 12:50:30;;;;;;;;;;;12.00;50.60;;;;;;5030977;28;19929;-71
2021/03/16 12:52:56;;;;;;;;;;;11.90;49.90;;;;;;5018634;28;19937;-71
2021/03/16 12:55:23;;;;;;;;;;;11.80;49.70;;;;;;5014231;28;19933;-71
2021/03/16 12:57:49;;;;;;;;;;;11.80;50.30;;;;;;5026798;28;19925;-71
2021/03/16 13:00:16;;;;;;;;;;;11.70;49.00;;;;;;5014434;28;20333;-73
2021/03/16 13:02:42;;;;;;;;;;;11.60;48.50;;;;;;5012548;28;19925;-73
2021/03/16 13:05:12;;;;;;;;;;;11.70;48.50;;;;;;5010054;28;20417;-72
2021/03/16 13:07:38;;;;;;;;;;;11.70;48.60;;;;;;5015993;28;20020;-69
2021/03/16 13:10:05;;;;;;;;;;;11.70;48.50;;;;;;5019622;28;19925;-70
2021/03/16 13:12:32;;;;;;;;;;;11.70;48.10;;;;;;5021161;28;19979;-69
2021/03/16 13:14:58;;;;;;;;;;;11.70;47.00;;;;;;5007119;28;19932;-70
2021/03/16 13:17:24;;;;;;;;;;;11.70;46.90;;;;;;5013982;28;19972;-70
2021/03/16 13:19:51;;;;;;;;;;;11.70;47.20;;;;;;5012636;28;19926;-70
2021/03/16 13:22:18;;;;;;;;;;;11.60;46.90;;;;;;5019600;28;20365;-70
2021/03/16 13:24:44;;;;;;;;;;;11.60;47.00;;;;;;5014028;28;20294;-70
2021/03/16 13:27:12;;;;;;;;;;;11.60;46.90;;;;;;5014965;28;19925;-70
2021/03/16 13:29:38;;;;;;;;;;;11.70;46.70;;;;;;5016155;28;19936;-70
2021/03/16 13:32:05;;;;;;;;;;;11.70;46.60;;;;;;5016165;28;20384;-70
2021/03/16 13:34:32;;;;;;;;;;;11.70;45.90;;;;;;5015448;28;19953;-70
2021/03/16 13:36:58;;;;;;;;;;;11.80;46.10;;;;;;5015015;28;19937;-69
2021/03/16 13:39:25;;;;;;;;;;;11.90;46.20;;;;;;5021416;28;19929;-70
2021/03/16 13:41:51;;;;;;;;;;;12.10;46.00;;;;;;5033252;28;19926;-71
2021/03/16 13:44:18;;;;;;;;;;;12.20;45.80;;;;;;5024089;28;19925;-70
2021/03/16 13:46:44;;;;;;;;;;;12.30;45.70;;;;;;5028917;28;19929;-71
2021/03/16 13:49:10;;;;;;;;;;;12.20;45.50;;;;;;5013673;28;19945;-70
2021/03/16 13:51:37;;;;;;;;;;;12.20;45.60;;;;;;5021201;28;20382;-70
2021/03/16 13:54:03;;;;;;;;;;;12.20;45.60;;;;;;5017159;28;19936;-70
2021/03/16 13:56:30;;;;;;;;;;;12.20;45.20;;;;;;5018697;28;20020;-70
2021/03/16 13:58:57;;;;;;;;;;;12.10;45.00;;;;;;5015236;28;19925;-72
2021/03/16 14:01:23;;;;;;;;;;;12.10;45.30;;;;;;5014992;28;19937;-70
2021/03/16 14:03:49;;;;;;;;;;;12.00;44.30;;;;;;5008682;28;19952;-72
2021/03/16 14:06:15;;;;;;;;;;;11.90;44.60;;;;;;5014670;28;19926;-72
2021/03/16 14:08:42;;;;;;;;;;;11.80;44.10;;;;;;5017917;28;19925;-73
2021/03/16 14:11:08;;;;;;;;;;;11.90;44.00;;;;;;5014799;28;19938;-73
2021/03/16 14:13:35;;;;;;;;;;;12.00;44.20;;;;;;5015427;28;19929;-72
2021/03/16 14:16:02;;;;;;;;;;;12.00;43.70;;;;;;5013901;28;19925;-72
2021/03/16 14:18:28;;;;;;;;;;;12.00;44.30;;;;;;5023950;28;19964;-73
2021/03/16 14:20:54;;;;;;;;;;;12.10;43.70;;;;;;5014938;28;20283;-72
2021/03/16 14:23:20;;;;;;;;;;;12.10;43.60;;;;;;5008919;28;19930;-73
2021/03/16 14:25:47;;;;;;;;;;;12.10;43.60;;;;;;5024452;28;20400;-73